.
WxDataArchive / Data Records for 2012-11-21
2012-11-20 November 2012 2012-11-22

Data Records for Wednesday, 21 November 2012

Time	Temp	Chill	HIndex	Humid	Dewpt	 Wind 	HiWind	WindDir	Rain 	Barom 
-----	----	-----	------	-----	-----	------	------	-------	-----	----- 
00:00	41.6	41.6	41.6	86	37.7	0	0	---	0.00	30.140 
00:05	41.3	41.3	41.3	86	37.4	0	0	---	0.00	30.140 
00:10	41.1	41.1	41.1	86	37.2	0	0	---	0.00	30.140 
00:15	40.8	40.8	40.8	87	37.2	0	0	---	0.00	30.146 
00:20	40.5	40.5	40.5	87	36.9	0	0	---	0.00	30.146 
00:25	40.3	40.3	40.3	87	36.7	0	0	---	0.00	30.146 
00:30	40.1	40.1	40.1	88	36.8	0	0	---	0.00	30.149 
00:35	39.9	39.9	39.9	88	36.6	0	0	---	0.00	30.149 
00:40	39.8	39.8	39.8	88	36.5	0	0	---	0.00	30.149 
00:45	39.5	39.5	39.5	88	36.2	0	0	---	0.00	30.153 
00:50	39.3	39.3	39.3	88	36.0	0	0	---	0.00	30.153 
00:55	39.1	39.1	39.1	88	35.9	0	0	---	0.00	30.153 
01:00	38.9	38.9	38.9	88	35.7	0	0	---	0.00	30.147 
01:05	38.8	38.8	38.8	89	35.8	0	0	---	0.00	30.147 
01:10	38.6	38.6	38.6	89	35.6	0	0	---	0.00	30.147 
01:15	38.5	38.5	38.5	89	35.5	0	0	---	0.00	30.148 
01:20	38.5	38.5	38.5	90	35.8	0	0	---	0.00	30.148 
01:25	38.5	38.5	38.5	90	35.8	0	0	---	0.00	30.148 
01:30	38.5	38.5	38.5	90	35.8	0	0	---	0.00	30.151 
01:35	38.3	38.3	38.3	90	35.6	0	0	---	0.00	30.151 
01:40	38.2	38.2	38.2	90	35.5	0	0	---	0.00	30.151 
01:45	38.0	38.0	38.0	90	35.3	0	0	---	0.00	30.153 
01:50	38.0	38.0	38.0	90	35.3	0	0	---	0.00	30.153 
01:55	37.9	37.9	37.9	90	35.2	0	0	---	0.00	30.153 
02:00	37.8	37.8	37.8	90	35.1	0	0	---	0.00	30.154 
02:05	37.6	37.6	37.6	90	34.9	0	0	---	0.00	30.154 
02:10	37.5	37.5	37.5	90	34.8	0	0	---	0.00	30.154 
02:15	37.2	37.2	37.2	90	34.5	0	0	---	0.00	30.157 
02:20	37.0	37.0	37.0	90	34.3	0	0	---	0.00	30.157 
02:25	36.8	36.8	36.8	91	34.4	0	0	---	0.00	30.157 
02:30	36.9	36.9	36.9	91	34.5	0	0	---	0.00	30.159 
02:35	36.9	36.9	36.9	91	34.5	0	0	---	0.00	30.159 
02:40	36.8	36.8	36.8	91	34.4	0	0	---	0.00	30.159 
02:45	36.5	36.5	36.5	91	34.1	0	0	---	0.00	30.163 
02:50	36.3	36.3	36.3	91	33.9	0	0	---	0.00	30.163 
02:55	36.2	36.2	36.2	91	33.8	0	0	---	0.00	30.163 
03:00	36.0	36.0	36.0	91	33.6	0	0	---	0.00	30.172 
03:05	35.9	35.9	35.9	91	33.5	0	0	---	0.00	30.172 
03:10	35.9	35.9	35.9	91	33.5	0	0	---	0.00	30.172 
03:15	36.0	36.0	36.0	92	33.9	0	0	---	0.00	30.173 
03:20	36.0	36.0	36.0	92	33.9	0	0	---	0.00	30.173 
03:25	36.0	36.0	36.0	92	33.9	0	0	---	0.00	30.173 
03:30	36.0	36.0	36.0	92	33.9	0	0	---	0.00	30.172 
03:35	35.9	35.9	35.9	92	33.8	0	0	---	0.00	30.172 
03:40	35.8	35.8	35.8	92	33.7	0	0	---	0.00	30.172 
03:45	35.6	35.6	35.6	92	33.5	0	0	---	0.00	30.173 
03:50	35.5	35.5	35.5	92	33.4	0	0	---	0.00	30.173 
03:55	35.5	35.5	35.5	92	33.4	0	0	---	0.00	30.173 
04:00	35.6	35.6	35.6	92	33.5	0	0	---	0.00	30.174 
04:05	35.6	35.6	35.6	92	33.5	0	0	---	0.00	30.174 
04:10	35.6	35.6	35.6	92	33.5	0	0	---	0.00	30.174 
04:15	35.6	35.6	35.6	92	33.5	0	0	---	0.00	30.181 
04:20	35.5	35.5	35.5	92	33.4	0	0	---	0.00	30.181 
04:25	35.3	35.3	35.3	92	33.2	0	0	---	0.00	30.181 
04:30	35.0	35.0	35.0	92	32.9	0	0	---	0.00	30.187 
04:35	35.2	35.2	35.2	92	33.1	0	0	---	0.00	30.187 
04:40	35.3	35.3	35.3	93	33.5	0	0	---	0.00	30.187 
04:45	35.3	35.3	35.3	92	33.2	0	0	---	0.00	30.186 
04:50	35.3	35.3	35.3	93	33.5	0	0	---	0.00	30.186 
04:55	35.3	35.3	35.3	93	33.5	0	0	---	0.00	30.186 
05:00	35.3	35.3	35.3	93	33.5	0	0	---	0.00	30.189 
05:05	35.3	35.3	35.3	93	33.5	0	0	---	0.00	30.189 
05:10	35.2	35.2	35.2	93	33.4	0	0	---	0.00	30.189 
05:15	35.0	35.0	35.0	93	33.2	0	0	---	0.00	30.192 
05:20	34.7	34.7	34.7	93	32.9	0	0	---	0.00	30.192 
05:25	34.6	34.6	34.6	93	32.8	0	0	---	0.00	30.192 
05:30	34.4	34.4	34.4	93	32.6	0	0	---	0.00	30.194 
05:35	34.4	34.4	34.4	93	32.6	0	0	---	0.00	30.194 
05:40	34.4	34.4	34.4	93	32.6	0	0	---	0.00	30.194 
05:45	34.3	34.3	34.3	93	32.5	0	0	---	0.00	30.200 
05:50	34.3	34.3	34.3	93	32.5	0	0	---	0.00	30.200 
05:55	34.1	34.1	34.1	93	32.3	0	0	---	0.00	30.200 
06:00	34.1	34.1	34.1	93	32.3	0	0	---	0.00	30.205 
06:05	34.0	34.0	34.0	93	32.2	0	0	---	0.00	30.205 
06:10	33.8	33.8	33.8	93	32.0	0	0	---	0.00	30.205 
06:15	33.7	33.7	33.7	93	31.9	0	0	---	0.00	30.208 
06:20	33.5	33.5	33.5	93	31.7	0	0	---	0.00	30.208 
06:25	33.5	33.5	33.5	93	31.7	0	0	---	0.00	30.208 
06:30	33.4	33.4	33.4	93	31.6	0	0	---	0.00	30.208 
06:35	33.4	33.4	33.4	93	31.6	0	0	---	0.00	30.208 
06:40	33.4	33.4	33.4	93	31.6	0	0	---	0.00	30.208 
06:45	33.2	33.2	33.2	93	31.4	0	0	---	0.00	30.200 
06:50	33.1	33.1	33.1	93	31.3	0	0	---	0.00	30.200 
06:55	33.1	33.1	33.1	93	31.3	0	0	---	0.00	30.200 
07:00	32.9	32.9	32.9	93	31.1	0	0	---	0.00	30.201 
07:05	32.8	32.8	32.8	93	31.0	0	0	---	0.00	30.201 
07:10	32.7	32.7	32.7	93	30.9	0	0	---	0.00	30.201 
07:15	32.5	32.5	32.5	93	30.7	0	0	---	0.00	30.198 
07:20	32.5	32.5	32.5	93	30.7	0	0	---	0.00	30.198 
07:25	32.5	32.5	32.5	93	30.7	0	0	---	0.00	30.198 
07:30	32.5	32.5	32.5	93	30.7	0	0	---	0.00	30.212 
07:35	32.4	32.4	32.4	93	30.6	0	0	---	0.00	30.212 
07:40	32.4	32.4	32.4	93	30.6	0	0	---	0.00	30.212 
07:45	32.4	32.4	32.4	93	30.6	0	0	---	0.00	30.221 
07:50	32.4	32.4	32.4	93	30.6	0	0	---	0.00	30.221 
07:55	32.4	32.4	32.4	93	30.6	0	0	---	0.00	30.221 
08:00	32.4	32.4	32.4	93	30.6	0	0	---	0.00	30.223 
08:05	32.5	32.5	32.5	94	31.0	0	0	---	0.00	30.223 
08:10	32.7	32.7	32.7	94	31.2	0	0	---	0.00	30.223 
08:15	32.9	32.9	32.9	94	31.4	0	0	---	0.00	30.229 
08:20	33.1	33.1	33.1	94	31.6	0	1	270	0.00	30.229 
08:25	33.4	33.4	33.4	94	31.9	0	1	292	0.00	30.229 
08:30	33.7	33.7	33.7	94	32.2	0	0	---	0.00	30.238 
08:35	34.3	34.3	34.3	94	32.8	0	0	---	0.00	30.238 
08:40	34.6	34.6	34.6	94	33.1	0	0	---	0.00	30.238 
08:45	34.9	34.9	34.9	94	33.4	0	0	---	0.00	30.240 
08:50	35.2	35.2	35.2	94	33.6	0	0	---	0.00	30.240 
08:55	35.5	35.5	35.5	95	34.2	0	0	---	0.00	30.240 
09:00	36.0	36.0	36.0	95	34.7	0	0	---	0.00	30.241 
09:05	36.6	36.6	36.6	95	35.3	0	0	---	0.00	30.241 
09:10	37.2	37.2	37.2	95	35.9	0	0	---	0.00	30.241 
09:15	38.2	38.2	38.2	95	36.9	0	0	---	0.00	30.230 
09:20	39.2	39.2	39.2	96	38.2	0	0	---	0.00	30.230 
09:25	40.3	40.3	40.3	96	39.3	0	0	---	0.00	30.230 
09:30	41.1	41.1	41.1	96	40.0	0	0	---	0.00	30.235 
09:35	41.5	41.5	41.5	96	40.4	0	0	---	0.00	30.235 
09:40	41.6	41.6	41.6	95	40.3	0	0	---	0.00	30.235 
09:45	42.1	42.1	42.1	95	40.8	0	0	---	0.00	30.235 
09:50	42.5	42.5	42.5	95	41.2	0	0	---	0.00	30.235 
09:55	42.8	42.8	42.8	95	41.5	0	0	---	0.00	30.235 
10:00	43.2	43.2	43.2	95	41.9	0	1	225	0.00	30.237 
10:05	43.5	43.5	43.5	95	42.2	0	0	---	0.00	30.237 
10:10	43.9	43.9	43.9	94	42.3	0	0	---	0.00	30.237 
10:15	44.3	44.3	44.3	94	42.7	0	0	---	0.00	30.239 
10:20	44.9	44.9	44.9	93	43.0	0	0	---	0.00	30.239 
10:25	45.5	45.5	45.5	92	43.3	0	1	225	0.00	30.239 
10:30	46.0	46.0	46.0	91	43.5	0	1	225	0.00	30.242 
10:35	46.4	46.4	46.4	88	43.0	0	1	225	0.00	30.242 
10:40	46.8	46.8	46.8	87	43.1	0	1	225	0.00	30.242 
10:45	47.4	47.4	47.4	86	43.4	0	0	---	0.00	30.245 
10:50	48.0	48.0	48.0	84	43.4	0	1	225	0.00	30.245 
10:55	48.5	48.5	48.5	83	43.6	0	1	225	0.00	30.245 
11:00	49.1	49.1	49.1	81	43.5	0	1	225	0.00	30.248 
11:05	49.6	49.6	49.6	78	43.0	0	1	225	0.00	30.248 
11:10	50.1	50.1	50.1	76	42.8	0	0	---	0.00	30.248 
11:15	50.5	50.5	50.5	75	42.9	0	1	225	0.00	30.248 
11:20	50.8	50.8	50.8	73	42.5	0	2	225	0.00	30.248 
11:25	51.3	51.3	51.3	73	42.9	0	1	225	0.00	30.248 
11:30	51.7	51.7	51.7	73	43.3	0	1	225	0.00	30.246 
11:35	52.2	52.2	52.2	72	43.4	0	1	225	0.00	30.246 
11:40	52.3	52.3	52.3	70	42.8	0	1	225	0.00	30.246 
11:45	52.6	52.6	52.6	69	42.7	0	2	225	0.00	30.242 
11:50	52.9	52.9	52.9	69	43.0	0	1	225	0.00	30.242 
11:55	53.2	53.2	53.2	68	42.9	0	1	225	0.00	30.242 
12:00	53.5	53.5	53.5	68	43.2	0	2	225	0.00	30.233 
12:05	53.8	53.8	53.8	67	43.1	0	2	225	0.00	30.233 
12:10	53.9	53.9	53.9	68	43.6	0	1	225	0.00	30.233 
12:15	53.9	53.9	53.9	67	43.2	0	1	225	0.00	30.233 
12:20	54.1	54.1	54.1	67	43.4	0	1	225	0.00	30.233 
12:25	54.4	54.4	54.4	67	43.7	0	2	225	0.00	30.233 
12:30	54.7	54.7	54.7	66	43.6	0	2	225	0.00	30.228 
12:35	54.8	54.8	54.8	67	44.1	0	2	225	0.00	30.228 
12:40	55.0	55.0	55.0	66	43.9	0	2	225	0.00	30.228 
12:45	55.1	55.1	55.1	66	43.9	0	3	225	0.00	30.219 
12:50	55.1	55.1	55.1	66	43.9	0	2	225	0.00	30.219 
12:55	55.1	55.1	55.1	66	43.9	0	3	225	0.00	30.219 
13:00	55.3	55.3	55.3	66	44.1	1	3	225	0.00	30.215 
13:05	55.4	55.4	55.4	65	43.8	0	3	315	0.00	30.215 
13:10	55.6	55.6	55.6	66	44.4	0	2	315	0.00	30.215 
13:15	55.7	55.7	55.7	65	44.1	0	1	315	0.00	30.214 
13:20	56.0	56.0	56.0	65	44.4	1	3	315	0.00	30.214 
13:25	56.0	56.0	56.0	65	44.4	0	1	248	0.00	30.214 
13:30	56.2	56.2	56.2	63	43.8	1	3	248	0.00	30.208 
13:35	56.3	56.3	56.3	64	44.3	0	2	248	0.00	30.208 
13:40	56.5	56.5	56.5	63	44.1	0	2	248	0.00	30.208 
13:45	56.6	56.6	56.6	64	44.6	1	3	248	0.00	30.206 
13:50	56.7	56.7	56.7	63	44.2	0	2	248	0.00	30.206 
13:55	56.9	56.9	56.9	63	44.4	1	3	248	0.00	30.206 
14:00	57.0	57.0	57.0	63	44.5	0	2	248	0.00	30.204 
14:05	57.2	57.2	57.2	62	44.3	1	4	248	0.00	30.204 
14:10	57.0	57.0	57.0	62	44.1	0	1	248	0.00	30.204 
14:15	56.9	56.9	56.9	62	44.0	1	2	248	0.00	30.201 
14:20	56.9	56.9	56.9	62	44.0	1	3	248	0.00	30.201 
14:25	56.9	56.9	56.9	62	44.0	1	2	248	0.00	30.201 
14:30	57.0	57.0	57.0	62	44.1	1	4	248	0.00	30.196 
14:35	57.0	57.0	57.0	62	44.1	0	2	248	0.00	30.196 
14:40	57.0	57.0	57.0	61	43.7	1	3	248	0.00	30.196 
14:45	57.0	57.0	57.0	61	43.7	0	2	248	0.00	30.199 
14:50	56.9	56.9	56.9	61	43.6	0	2	248	0.00	30.199 
14:55	56.7	56.7	56.7	61	43.4	0	1	248	0.00	30.199 
15:00	56.7	56.7	56.7	61	43.4	1	3	248	0.00	30.197 
15:05	56.7	56.7	56.7	61	43.4	0	1	248	0.00	30.197 
15:10	56.9	56.9	56.9	61	43.6	0	2	248	0.00	30.197 
15:15	56.9	56.9	56.9	62	44.0	0	2	248	0.00	30.194 
15:20	57.0	57.0	57.0	61	43.7	0	3	248	0.00	30.194 
15:25	57.0	57.0	57.0	61	43.7	0	1	248	0.00	30.194 
15:30	57.0	57.0	57.0	61	43.7	0	1	248	0.00	30.193 
15:35	57.0	57.0	57.0	61	43.7	0	2	248	0.00	30.193 
15:40	57.0	57.0	57.0	61	43.7	0	4	248	0.00	30.193 
15:45	57.0	57.0	57.0	61	43.7	0	3	248	0.00	30.189 
15:50	56.9	56.9	56.9	61	43.6	0	3	248	0.00	30.189 
15:55	56.7	56.7	56.7	62	43.8	0	2	248	0.00	30.189 
16:00	56.6	56.6	56.6	61	43.3	0	2	248	0.00	30.186 
16:05	56.5	56.5	56.5	62	43.6	0	1	248	0.00	30.186 
16:10	56.3	56.3	56.3	62	43.4	0	0	---	0.00	30.186 
16:15	56.2	56.2	56.2	62	43.4	0	0	---	0.00	30.187 
16:20	55.9	55.9	55.9	63	43.5	0	1	248	0.00	30.187 
16:25	55.7	55.7	55.7	63	43.3	0	1	248	0.00	30.187 
16:30	55.6	55.6	55.6	63	43.2	0	1	248	0.00	30.188 
16:35	55.4	55.4	55.4	63	43.0	0	0	---	0.00	30.188 
16:40	55.4	55.4	55.4	64	43.4	0	1	248	0.00	30.188 
16:45	55.1	55.1	55.1	64	43.1	0	0	---	0.00	30.189 
16:50	55.0	55.0	55.0	64	43.0	0	0	---	0.00	30.189 
16:55	54.5	54.5	54.5	65	43.0	0	0	---	0.00	30.189 
17:00	54.1	54.1	54.1	66	43.0	0	0	---	0.00	30.188 
17:05	53.6	53.6	53.6	66	42.5	0	0	---	0.00	30.188 
17:10	53.2	53.2	53.2	67	42.5	0	0	---	0.00	30.188 
17:15	52.6	52.6	52.6	68	42.3	0	0	---	0.00	30.188 
17:20	52.0	52.0	52.0	69	42.1	0	0	---	0.00	30.188 
17:25	51.4	51.4	51.4	70	41.9	0	0	---	0.00	30.188 
17:30	50.8	50.8	50.8	71	41.7	0	0	---	0.00	30.192 
17:35	50.2	50.2	50.2	73	41.9	0	0	---	0.00	30.192 
17:40	49.6	49.6	49.6	74	41.7	0	0	---	0.00	30.192 
17:45	49.2	49.2	49.2	75	41.6	0	0	---	0.00	30.192 
17:50	48.6	48.6	48.6	75	41.0	0	0	---	0.00	30.192 
17:55	48.0	48.0	48.0	77	41.1	0	0	---	0.00	30.192 
18:00	47.6	47.6	47.6	78	41.1	0	0	---	0.00	30.195 
18:05	47.3	47.3	47.3	79	41.1	0	0	---	0.00	30.195 
18:10	46.8	46.8	46.8	80	41.0	0	0	---	0.00	30.195 
18:15	46.5	46.5	46.5	80	40.7	0	0	---	0.00	30.198 
18:20	46.1	46.1	46.1	80	40.3	0	0	---	0.00	30.198 
18:25	45.7	45.7	45.7	81	40.2	0	0	---	0.00	30.198 
18:30	45.2	45.2	45.2	81	39.7	0	0	---	0.00	30.199 
18:35	44.9	44.9	44.9	82	39.7	0	0	---	0.00	30.199 
18:40	44.5	44.5	44.5	82	39.4	0	0	---	0.00	30.199 
18:45	44.2	44.2	44.2	83	39.4	0	0	---	0.00	30.207 
18:50	43.8	43.8	43.8	83	39.0	0	0	---	0.00	30.207 
18:55	43.5	43.5	43.5	84	39.0	0	0	---	0.00	30.207 
19:00	43.3	43.3	43.3	85	39.1	0	0	---	0.00	30.207 
19:05	43.2	43.2	43.2	85	39.0	0	0	---	0.00	30.207 
19:10	42.9	42.9	42.9	85	38.7	0	0	---	0.00	30.207 
19:15	42.5	42.5	42.5	85	38.3	0	0	---	0.00	30.205 
19:20	42.3	42.3	42.3	86	38.4	0	0	---	0.00	30.205 
19:25	42.2	42.2	42.2	86	38.3	0	0	---	0.00	30.205 
19:30	41.9	41.9	41.9	87	38.3	0	0	---	0.00	30.208 
19:35	41.6	41.6	41.6	87	38.0	0	0	---	0.00	30.208 
19:40	41.2	41.2	41.2	87	37.6	0	0	---	0.00	30.208 
19:45	40.9	40.9	40.9	87	37.3	0	0	---	0.00	30.206 
19:50	40.8	40.8	40.8	87	37.2	0	0	---	0.00	30.206 
19:55	40.5	40.5	40.5	87	36.9	0	0	---	0.00	30.206 
20:00	40.5	40.5	40.5	88	37.2	0	0	---	0.00	30.206 
20:05	40.3	40.3	40.3	88	37.0	0	0	---	0.00	30.206 
20:10	40.2	40.2	40.2	88	36.9	0	0	---	0.00	30.206 
20:15	39.9	39.9	39.9	88	36.6	0	0	---	0.00	30.201 
20:20	39.6	39.6	39.6	88	36.3	0	0	---	0.00	30.201 
20:25	39.5	39.5	39.5	89	36.5	0	0	---	0.00	30.201 
20:30	39.5	39.5	39.5	89	36.5	0	0	---	0.00	30.200 
20:35	39.5	39.5	39.5	90	36.8	0	0	---	0.00	30.200 
20:40	39.5	39.5	39.5	90	36.8	0	0	---	0.00	30.200 
20:45	39.5	39.5	39.5	90	36.8	0	0	---	0.00	30.201 
20:50	39.3	39.3	39.3	90	36.6	0	0	---	0.00	30.201 
20:55	39.2	39.2	39.2	90	36.5	0	0	---	0.00	30.201 
21:00	39.2	39.2	39.2	91	36.8	0	0	---	0.00	30.205 
21:05	39.1	39.1	39.1	91	36.7	0	0	---	0.00	30.205 
21:10	38.9	38.9	38.9	91	36.5	0	0	---	0.00	30.205 
21:15	38.6	38.6	38.6	91	36.2	0	0	---	0.00	30.196 
21:20	38.3	38.3	38.3	91	35.9	0	0	---	0.00	30.196 
21:25	38.0	38.0	38.0	91	35.6	0	0	---	0.00	30.196 
21:30	37.9	37.9	37.9	91	35.5	0	0	---	0.00	30.198 
21:35	37.8	37.8	37.8	91	35.4	0	0	---	0.00	30.198 
21:40	37.6	37.6	37.6	92	35.5	0	0	---	0.00	30.198 
21:45	37.8	37.8	37.8	92	35.7	0	0	---	0.00	30.196 
21:50	37.6	37.6	37.6	92	35.5	0	0	---	0.00	30.196 
21:55	37.6	37.6	37.6	92	35.5	0	0	---	0.00	30.196 
22:00	37.3	37.3	37.3	92	35.2	0	0	---	0.00	30.194 
22:05	37.2	37.2	37.2	92	35.1	0	0	---	0.00	30.194 
22:10	37.2	37.2	37.2	92	35.1	0	0	---	0.00	30.194 
22:15	37.0	37.0	37.0	92	34.9	0	0	---	0.00	30.190 
22:20	36.8	36.8	36.8	92	34.7	0	0	---	0.00	30.190 
22:25	36.6	36.6	36.6	92	34.5	0	0	---	0.00	30.190 
22:30	36.6	36.6	36.6	92	34.5	0	0	---	0.00	30.193 
22:35	36.5	36.5	36.5	92	34.4	0	0	---	0.00	30.193 
22:40	36.5	36.5	36.5	92	34.4	0	0	---	0.00	30.193 
22:45	36.5	36.5	36.5	92	34.4	0	0	---	0.00	30.189 
22:50	36.5	36.5	36.5	92	34.4	0	0	---	0.00	30.189 
22:55	36.3	36.3	36.3	92	34.2	0	0	---	0.00	30.189 
23:00	36.2	36.2	36.2	92	34.1	0	0	---	0.00	30.192 
23:05	36.0	36.0	36.0	92	33.9	0	0	---	0.00	30.192 
23:10	35.9	35.9	35.9	92	33.8	0	0	---	0.00	30.192 
23:15	35.8	35.8	35.8	92	33.7	0	0	---	0.00	30.187 
23:20	35.6	35.6	35.6	92	33.5	0	0	---	0.00	30.187 
23:25	35.5	35.5	35.5	92	33.4	0	0	---	0.00	30.187 
23:30	35.3	35.3	35.3	92	33.2	0	0	---	0.00	30.190 
23:35	35.2	35.2	35.2	92	33.1	0	0	---	0.00	30.190 
23:40	35.2	35.2	35.2	93	33.4	0	0	---	0.00	30.190 
23:45	35.0	35.0	35.0	93	33.2	0	0	---	0.00	30.190 
23:50	34.9	34.9	34.9	93	33.1	0	0	---	0.00	30.190 
23:55	34.7	34.7	34.7	93	32.9	0	0	---	0.00	30.190 

CoCoRaHS
IN-AL-39
A2 Web Hosting
Creative Commons License
GoDaddy
search engine by freefind advanced

loaded 2018-11-20 02:26:46 • last modified 2010-11-18 10:43:29
Privacy PolicyDisclaimer
• wx.awcolley.com is powered by PmWiki v.2002016 •
• all content (unless otherwise noted) © 2018 A W Colley